Sibirskiy-2112 — UBXE8 — position and weather

sailwx.info

Track history (hours):
 
Tides and Currents Weather Stations Pressure Air Temp Water Temp Dewpoint Dewpoint Depression Visibility Wind Speed Wind Dir Waves Ship Positions

Sibirskiy-2112

Last reported at 2014-Dec-28 16:13 UTC. Time now 2015-Jan-30 18:32 UTC.
Position N 44°05' E 034°45'.
Warning: this ship's position is 33 days out of date.

Length 129 m; draft 2.8 m.

Type: Cargo ship. MMSI: 273342420.

Date/timePositionNaut miles runAvg speedWind from/ knotsBaromVisibWave heightAir tempDewpointWater temp
2014-Dec-28 16:13N 44°05' E 034°45'316 7.4
2014-Dec-26 21:32N 40°58' E 028°59'4 3.6
2014-Dec-26 20:34N 40°57' E 028°55'0 0.4
2014-Dec-26 19:26N 40°57' E 028°54'0 0.0
2014-Dec-26 18:14N 40°57' E 028°54'0 0.0
2014-Dec-26 14:08N 40°57' E 028°54'0 0.0
2014-Dec-26 13:11N 40°57' E 028°54'0 0.0
2014-Dec-26 12:29N 40°57' E 028°54'0 0.0
2014-Dec-26 11:29N 40°57' E 028°54'0 0.0
2014-Dec-26 10:25N 40°57' E 028°54'0 0.0
2014-Dec-26 06:33N 40°57' E 028°54'0 0.0
2014-Dec-26 03:10N 40°57' E 028°54'0 0.0
2014-Dec-26 02:22N 40°57' E 028°54'0 0.0
2014-Dec-25 23:04N 40°57' E 028°54'0 0.0
2014-Dec-25 20:28N 40°57' E 028°54'2 1.7
2014-Dec-25 19:29N 40°57' E 028°56'7 6.9
2014-Dec-25 18:32N 40°51' E 028°51'107 8.2
2014-Dec-25 05:29N 40°18' E 026°36'51 6.9
2014-Dec-24 22:12N 39°38' E 025°57'  
2014-Dec-21 15:32N 40°19' E 026°36'111 5.4
2014-Dec-20 19:13N 40°56' E 028°53'4 6.7
2014-Dec-20 18:33N 40°58' E 028°58'  
Track history (hours):
 
Tides and Currents Weather Stations Pressure Air Temp Water Temp Dewpoint Dewpoint Depression Visibility Wind Speed Wind Dir Waves Ship Positions

Sibirskiy-2112

Last reported at 2014-Dec-28 16:13 UTC. Time now 2015-Jan-30 18:32 UTC.
Position N 44°05' E 034°45'.
Warning: this ship's position is 33 days out of date.

Length 129 m; draft 2.8 m.

Type: Cargo ship. MMSI: 273342420.

Date/timePositionNaut miles runAvg speedWind from/ knotsBaromVisibWave heightAir tempDewpointWater temp
2014-Dec-28 16:13N 44°05' E 034°45'316 7.4
2014-Dec-26 21:32N 40°58' E 028°59'4 3.6
2014-Dec-26 20:34N 40°57' E 028°55'0 0.4
2014-Dec-26 19:26N 40°57' E 028°54'0 0.0
2014-Dec-26 18:14N 40°57' E 028°54'0 0.0
2014-Dec-26 14:08N 40°57' E 028°54'0 0.0
2014-Dec-26 13:11N 40°57' E 028°54'0 0.0
2014-Dec-26 12:29N 40°57' E 028°54'0 0.0
2014-Dec-26 11:29N 40°57' E 028°54'0 0.0
2014-Dec-26 10:25N 40°57' E 028°54'0 0.0
2014-Dec-26 06:33N 40°57' E 028°54'0 0.0
2014-Dec-26 03:10N 40°57' E 028°54'0 0.0
2014-Dec-26 02:22N 40°57' E 028°54'0 0.0
2014-Dec-25 23:04N 40°57' E 028°54'0 0.0
2014-Dec-25 20:28N 40°57' E 028°54'2 1.7
2014-Dec-25 19:29N 40°57' E 028°56'7 6.9
2014-Dec-25 18:32N 40°51' E 028°51'107 8.2
2014-Dec-25 05:29N 40°18' E 026°36'51 6.9
2014-Dec-24 22:12N 39°38' E 025°57'  
2014-Dec-21 15:32N 40°19' E 026°36'111 5.4
2014-Dec-20 19:13N 40°56' E 028°53'4 6.7
2014-Dec-20 18:33N 40°58' E 028°58'  

Dump ship's entire track history